SKSM/SMR METAR and TAF weather

Enter ICAO airport designator
Station Type Date Time Source
SKSM METAR 2020/01/19 19:00 UTC NOAA

SKSM 191900Z 22004KT 9999 FEW020 31/24 A2975


Station Type Date Time Source
SKSM Decoded METAR 2020/01/19 19:00 UTC NOAA

Santa Marta / Simon Bolivar, Colombia (SKSM) 11-08N 074-14W 14M
Jan 19, 2020 - 02:00 PM EST / 2020.01.19 1900 UTC
Wind: from the SW (220 degrees) at 5 MPH (4 KT):0
Visibility: greater than 7 mile(s):0
Sky conditions: mostly clear
Temperature: 87 F (31 C)
Heat index: 95.7 F (35.4 C):1
Dew Point: 75 F (24 C)
Relative Humidity: 66%
Pressure (altimeter): 29.75 in. Hg (1007 hPa)
ob: SKSM 191900Z 22004KT 9999 FEW020 31/24 A2975
cycle: 19

Station Type Date Time Source
SKSM TAF UTC NOAA

Error!

Example: see airport list